Time;durP1;ratioP1;P1;durP2;ratioP2;P2;SDS_P1;SDS_P2;PMS_P1;PMS_P2;Temp;Humidity;BMP_temperature;BMP_pressure;BME280_temperature;BME280_humidity;BME280_pressure;Samples;Min_cycle;Max_cycle;Signal;HPM_P1;HPM_P2
2022/01/31 00:00:48;;;;;;;;;13.00;8.00;;;;;;;;6329250;22;28388;-84
2022/01/31 00:03:13;;;;;;;;;13.33;8.00;;;;;;;;6329938;22;28242;-84
2022/01/31 00:05:38;;;;;;;;;10.33;7.67;;;;;;;;6330626;22;28416;-84
2022/01/31 00:08:03;;;;;;;;;9.00;8.33;;;;;;;;6302022;22;29902;-84
2022/01/31 00:10:31;;;;;;;;;7.00;7.00;;;;;;;;6329790;22;28361;-84
2022/01/31 00:13:04;;;;;;;;;9.75;7.00;;;;;;;;6330008;22;28409;-84
2022/01/31 00:15:30;;;;;;;;;18.25;6.75;;;;;;;;6330015;22;28263;-84
2022/01/31 00:17:55;;;;;;;;;8.25;7.25;;;;;;;;6300947;22;30149;-84
2022/01/31 00:20:20;;;;;;;;;18.00;12.00;;;;;;;;6329683;22;28322;-84
2022/01/31 00:22:46;;;;;;;;;15.67;8.00;;;;;;;;6301769;22;28708;-84
2022/01/31 00:25:11;;;;;;;;;11.50;7.00;;;;;;;;6327952;22;28409;-84
2022/01/31 00:27:37;;;;;;;;;11.25;5.50;;;;;;;;6329463;22;28263;-84
2022/01/31 00:30:03;;;;;;;;;8.00;8.00;;;;;;;;6329949;22;28242;-84
2022/01/31 00:32:29;;;;;;;;;5.00;5.00;;;;;;;;6301052;22;28388;-84
2022/01/31 00:34:55;;;;;;;;;9.50;5.25;;;;;;;;6329765;22;28567;-84
2022/01/31 00:37:20;;;;;;;;;8.50;6.25;;;;;;;;6329244;22;28458;-84
2022/01/31 00:39:45;;;;;;;;;12.67;7.00;;;;;;;;6329350;22;28453;-84
2022/01/31 00:42:11;;;;;;;;;15.25;6.75;;;;;;;;6329882;22;28194;-84
2022/01/31 00:44:49;;;;;;;;;8.33;6.00;;;;;;;;6302154;22;28287;-84
2022/01/31 00:47:26;;;;;;;;;7.50;4.75;;;;;;;;6300897;22;29736;-84
2022/01/31 00:50:02;;;;;;;;;7.25;4.00;;;;;;;;6301312;22;28988;-84
2022/01/31 00:52:27;;;;;;;;;2.75;2.75;;;;;;;;6329947;22;28386;-84
2022/01/31 00:54:53;;;;;;;;;7.67;7.00;;;;;;;;6301805;22;28549;-84
2022/01/31 00:57:18;;;;;;;;;5.33;4.00;;;;;;;;6329387;22;28523;-84
2022/01/31 00:59:43;;;;;;;;;12.33;3.67;;;;;;;;6329890;22;28267;-84
2022/01/31 01:02:08;;;;;;;;;5.33;4.00;;;;;;;;6302576;22;28327;-84
2022/01/31 01:04:34;;;;;;;;;6.25;4.50;;;;;;;;6331054;22;28497;-84
2022/01/31 01:06:59;;;;;;;;;7.50;4.00;;;;;;;;6331163;22;29311;-84
2022/01/31 01:09:24;;;;;;;;;3.33;3.00;;;;;;;;6330620;22;28281;-84
2022/01/31 01:11:49;;;;;;;;;6.67;3.67;;;;;;;;6330935;22;28361;-84
2022/01/31 01:14:14;;;;;;;;;7.25;2.75;;;;;;;;6330912;22;28497;-84
2022/01/31 01:16:40;;;;;;;;;3.67;3.00;;;;;;;;6330924;22;28358;-84
2022/01/31 01:19:05;;;;;;;;;5.00;2.00;;;;;;;;6301581;22;28411;-84
2022/01/31 01:21:30;;;;;;;;;7.67;3.00;;;;;;;;6330901;22;28378;-84
2022/01/31 01:23:56;;;;;;;;;7.00;5.00;;;;;;;;6330751;22;28469;-84
2022/01/31 01:26:21;;;;;;;;;2.00;2.00;;;;;;;;6330994;22;28378;-84
2022/01/31 01:28:46;;;;;;;;;6.67;2.67;;;;;;;;6330712;22;28307;-84
2022/01/31 01:31:12;;;;;;;;;1.75;1.25;;;;;;;;6331160;22;28156;-84
2022/01/31 01:33:40;;;;;;;;;5.00;3.00;;;;;;;;6330415;22;28437;-84
2022/01/31 01:36:06;;;;;;;;;6.75;2.50;;;;;;;;6330888;22;28268;-84
2022/01/31 01:38:32;;;;;;;;;8.75;2.50;;;;;;;;6330309;22;28444;-84
2022/01/31 01:40:59;;;;;;;;;4.75;2.00;;;;;;;;6331121;22;28485;-84
2022/01/31 01:43:25;;;;;;;;;3.00;0.25;;;;;;;;6302741;22;28477;-84
2022/01/31 01:45:51;;;;;;;;;8.00;2.25;;;;;;;;6330737;22;29290;-84
2022/01/31 01:48:16;;;;;;;;;3.75;2.75;;;;;;;;6330335;22;28265;-84
2022/01/31 01:50:42;;;;;;;;;3.50;2.00;;;;;;;;6330169;22;28279;-84
2022/01/31 01:53:07;;;;;;;;;5.25;3.00;;;;;;;;6330726;22;28240;-84
2022/01/31 01:55:32;;;;;;;;;4.75;2.75;;;;;;;;6330580;22;28220;-84
2022/01/31 01:57:58;;;;;;;;;3.00;2.00;;;;;;;;6330412;22;28224;-84
2022/01/31 02:00:26;;;;;;;;;5.25;3.25;;;;;;;;6330905;22;28243;-84
2022/01/31 02:02:51;;;;;;;;;6.50;2.00;;;;;;;;6329820;22;28366;-84
2022/01/31 02:05:17;;;;;;;;;5.50;3.00;;;;;;;;6330931;22;28377;-84
2022/01/31 02:07:43;;;;;;;;;9.25;3.00;;;;;;;;6330415;22;28321;-84
2022/01/31 02:10:08;;;;;;;;;8.00;3.25;;;;;;;;6330979;22;28278;-84
2022/01/31 02:12:45;;;;;;;;;4.50;2.50;;;;;;;;6329865;22;28259;-84
2022/01/31 02:15:10;;;;;;;;;7.25;2.00;;;;;;;;6330940;22;28486;-84
2022/01/31 02:17:36;;;;;;;;;8.00;2.25;;;;;;;;6329993;22;28366;-84
2022/01/31 02:20:03;;;;;;;;;3.25;2.00;;;;;;;;6330841;22;28176;-84
2022/01/31 02:22:28;;;;;;;;;8.00;3.00;;;;;;;;6302599;22;28633;-84
2022/01/31 02:24:53;;;;;;;;;3.00;1.00;;;;;;;;6302422;22;29687;-84
2022/01/31 02:27:29;;;;;;;;;13.00;5.00;;;;;;;;6330420;22;28236;-84
2022/01/31 02:29:54;;;;;;;;;5.00;2.25;;;;;;;;6330897;22;28303;-84
2022/01/31 02:32:22;;;;;;;;;5.50;2.00;;;;;;;;6302181;22;28408;-84
2022/01/31 02:34:47;;;;;;;;;3.00;2.25;;;;;;;;6330422;22;28422;-84
2022/01/31 02:37:12;;;;;;;;;2.75;2.50;;;;;;;;6302259;22;29672;-84
2022/01/31 02:39:38;;;;;;;;;2.00;2.00;;;;;;;;6330534;22;28273;-84
2022/01/31 02:42:03;;;;;;;;;6.50;2.00;;;;;;;;6302138;22;28808;-84
2022/01/31 02:44:28;;;;;;;;;3.50;2.00;;;;;;;;6330606;22;28271;-84
2022/01/31 02:46:55;;;;;;;;;4.33;2.33;;;;;;;;6330263;22;28409;-84
2022/01/31 02:49:24;;;;;;;;;3.75;2.00;;;;;;;;6329761;22;28347;-84
2022/01/31 02:51:55;;;;;;;;;4.50;3.00;;;;;;;;6301498;22;28343;-84
2022/01/31 02:54:20;;;;;;;;;6.00;2.75;;;;;;;;6302344;22;29055;-84
2022/01/31 02:56:46;;;;;;;;;3.00;1.00;;;;;;;;6302246;22;28573;-84
2022/01/31 02:59:11;;;;;;;;;1.67;1.00;;;;;;;;6330662;22;28345;-84
2022/01/31 03:01:36;;;;;;;;;7.75;1.25;;;;;;;;6330230;22;28255;-84
2022/01/31 03:04:02;;;;;;;;;6.25;1.00;;;;;;;;6330186;22;28510;-84
2022/01/31 03:06:27;;;;;;;;;2.00;2.00;;;;;;;;6330536;22;28396;-84
2022/01/31 03:08:53;;;;;;;;;2.33;1.00;;;;;;;;6302259;22;28315;-84
2022/01/31 03:11:18;;;;;;;;;4.00;2.00;;;;;;;;6330384;22;28181;-85
2022/01/31 03:13:43;;;;;;;;;2.00;1.00;;;;;;;;6330403;22;28255;-84
2022/01/31 03:16:08;;;;;;;;;3.33;2.00;;;;;;;;6330587;22;28362;-84
2022/01/31 03:18:34;;;;;;;;;1.00;1.00;;;;;;;;6329811;22;28373;-84
2022/01/31 03:20:59;;;;;;;;;2.33;1.00;;;;;;;;6330612;22;28325;-84
2022/01/31 03:23:24;;;;;;;;;7.00;2.00;;;;;;;;6329838;22;28375;-84
2022/01/31 03:25:49;;;;;;;;;6.33;1.00;;;;;;;;6330130;22;28282;-84
2022/01/31 03:28:15;;;;;;;;;7.33;0.67;;;;;;;;6330051;22;28539;-84
2022/01/31 03:30:40;;;;;;;;;2.00;1.00;;;;;;;;6330253;22;28173;-84
2022/01/31 03:33:05;;;;;;;;;1.00;1.00;;;;;;;;6330170;22;28288;-84
2022/01/31 03:35:31;;;;;;;;;3.75;1.50;;;;;;;;6330252;22;28409;-84
2022/01/31 03:37:56;;;;;;;;;1.00;1.00;;;;;;;;6330009;22;28462;-84
2022/01/31 03:40:21;;;;;;;;;1.25;0.00;;;;;;;;6340539;22;27844;-83
2022/01/31 03:42:46;;;;;;;;;3.00;1.00;;;;;;;;6345068;22;28490;-84
2022/01/31 03:45:12;;;;;;;;;1.00;1.00;;;;;;;;6344928;22;28615;-84
2022/01/31 03:47:44;;;;;;;;;4.00;1.00;;;;;;;;6341732;22;28278;-84
2022/01/31 03:50:10;;;;;;;;;3.00;1.00;;;;;;;;6332230;22;27711;-84
2022/01/31 03:52:35;;;;;;;;;3.00;1.00;;;;;;;;6332047;22;28254;-84
2022/01/31 03:55:00;;;;;;;;;3.50;1.00;;;;;;;;6303133;22;28560;-84
2022/01/31 03:57:25;;;;;;;;;5.33;2.00;;;;;;;;6331653;22;28260;-83
2022/01/31 03:59:51;;;;;;;;;2.00;2.00;;;;;;;;6304324;22;28517;-84
2022/01/31 04:02:16;;;;;;;;;4.00;1.00;;;;;;;;6330450;22;29142;-84
2022/01/31 04:04:41;;;;;;;;;1.00;1.00;;;;;;;;6330105;22;28400;-84
2022/01/31 04:07:06;;;;;;;;;4.33;2.00;;;;;;;;6330521;22;28360;-84
2022/01/31 04:09:31;;;;;;;;;3.00;0.00;;;;;;;;6329498;22;42098;-84
2022/01/31 04:11:57;;;;;;;;;0.00;0.00;;;;;;;;6310002;22;46243;-83
2022/01/31 04:14:26;;;;;;;;;2.00;0.00;;;;;;;;6310397;22;45361;-83
2022/01/31 04:16:53;;;;;;;;;0.25;0.00;;;;;;;;6309978;22;45362;-84
2022/01/31 04:19:18;;;;;;;;;0.00;0.00;;;;;;;;6309522;22;45428;-84
2022/01/31 04:21:44;;;;;;;;;2.00;1.00;;;;;;;;6309988;22;45375;-84
2022/01/31 04:24:09;;;;;;;;;0.33;0.33;;;;;;;;6310340;22;45186;-83
2022/01/31 04:26:44;;;;;;;;;2.00;0.00;;;;;;;;6282228;22;45282;-84
2022/01/31 04:29:14;;;;;;;;;0.00;0.00;;;;;;;;6281883;22;45344;-83
2022/01/31 04:31:44;;;;;;;;;2.00;0.00;;;;;;;;6309206;22;46526;-83
2022/01/31 04:34:10;;;;;;;;;1.75;0.00;;;;;;;;6282016;22;45615;-84
2022/01/31 04:36:35;;;;;;;;;0.00;0.00;;;;;;;;6309691;22;45234;-83
2022/01/31 04:39:01;;;;;;;;;2.75;0.00;;;;;;;;6309256;22;45704;-84
2022/01/31 04:41:27;;;;;;;;;0.75;0.75;;;;;;;;6309679;22;45521;-84
2022/01/31 04:43:56;;;;;;;;;0.00;0.00;;;;;;;;6309844;22;45354;-84
2022/01/31 04:46:21;;;;;;;;;1.00;1.00;;;;;;;;6309760;22;45240;-84
2022/01/31 04:48:46;;;;;;;;;1.00;1.00;;;;;;;;6309468;22;45239;-84
2022/01/31 04:51:13;;;;;;;;;3.00;1.00;;;;;;;;6308958;22;45201;-84
2022/01/31 04:53:38;;;;;;;;;0.25;0.25;;;;;;;;6310020;22;45168;-84
2022/01/31 04:56:03;;;;;;;;;3.00;1.00;;;;;;;;6310184;22;45176;-84
2022/01/31 04:58:31;;;;;;;;;0.75;0.75;;;;;;;;6309335;22;45132;-84
2022/01/31 05:00:56;;;;;;;;;1.75;1.00;;;;;;;;6309708;22;45421;-84
2022/01/31 05:03:21;;;;;;;;;0.00;0.00;;;;;;;;6309315;22;45306;-84
2022/01/31 05:05:47;;;;;;;;;2.25;1.00;;;;;;;;6309935;22;45385;-84
2022/01/31 05:08:12;;;;;;;;;3.00;0.00;;;;;;;;6309517;22;45653;-84
2022/01/31 05:10:49;;;;;;;;;2.00;0.25;;;;;;;;6309481;22;45351;-83
2022/01/31 05:13:15;;;;;;;;;1.00;0.00;;;;;;;;6309559;22;45425;-83
2022/01/31 05:15:41;;;;;;;;;1.50;1.00;;;;;;;;6309913;22;45469;-84
2022/01/31 05:18:06;;;;;;;;;1.00;1.00;;;;;;;;6281075;22;45916;-84
2022/01/31 05:20:31;;;;;;;;;2.00;1.00;;;;;;;;6309318;22;45192;-83
2022/01/31 05:22:56;;;;;;;;;2.00;0.75;;;;;;;;6309106;22;45744;-84
2022/01/31 05:25:22;;;;;;;;;1.67;1.00;;;;;;;;6309552;22;45216;-84
2022/01/31 05:27:47;;;;;;;;;2.00;0.00;;;;;;;;6309067;22;45194;-84
2022/01/31 05:30:12;;;;;;;;;0.00;0.00;;;;;;;;6309641;22;45141;-84
2022/01/31 05:32:38;;;;;;;;;1.00;1.00;;;;;;;;6308912;22;45256;-84
2022/01/31 05:35:04;;;;;;;;;4.00;1.00;;;;;;;;6309842;22;45266;-84
2022/01/31 05:37:30;;;;;;;;;1.25;0.00;;;;;;;;6309095;22;45090;-84
2022/01/31 05:39:55;;;;;;;;;6.75;0.75;;;;;;;;6308842;22;46344;-83
2022/01/31 05:42:21;;;;;;;;;1.00;1.00;;;;;;;;6309541;22;45259;-84
2022/01/31 05:44:47;;;;;;;;;1.00;0.25;;;;;;;;6309623;22;45295;-83
2022/01/31 05:47:13;;;;;;;;;5.25;1.00;;;;;;;;6281239;22;45369;-84
2022/01/31 05:49:38;;;;;;;;;1.00;0.00;;;;;;;;6310611;22;45417;-83
2022/01/31 05:52:05;;;;;;;;;5.00;1.00;;;;;;;;6310519;22;45312;-84
2022/01/31 05:54:31;;;;;;;;;4.00;0.00;;;;;;;;6310854;22;45411;-83
2022/01/31 05:56:56;;;;;;;;;3.00;1.00;;;;;;;;6310585;22;45500;-84
2022/01/31 05:59:22;;;;;;;;;2.00;1.00;;;;;;;;6310629;22;46218;-84
2022/01/31 06:01:47;;;;;;;;;1.75;1.00;;;;;;;;6310426;22;45140;-84
2022/01/31 06:04:12;;;;;;;;;2.00;1.00;;;;;;;;6310844;22;45154;-84
2022/01/31 06:06:38;;;;;;;;;3.00;1.00;;;;;;;;6310446;22;45385;-84
2022/01/31 06:09:03;;;;;;;;;3.00;0.00;;;;;;;;6310391;22;45296;-84
2022/01/31 06:11:31;;;;;;;;;0.50;0.50;;;;;;;;6310949;22;45227;-84
2022/01/31 06:13:56;;;;;;;;;1.75;1.00;;;;;;;;6311312;22;45219;-83
2022/01/31 06:16:21;;;;;;;;;1.00;1.00;;;;;;;;6311034;22;45326;-83
2022/01/31 06:18:47;;;;;;;;;2.50;1.25;;;;;;;;6310189;22;46000;-83
2022/01/31 06:21:13;;;;;;;;;6.25;1.00;;;;;;;;6310475;22;45349;-83
2022/01/31 06:23:38;;;;;;;;;2.50;0.25;;;;;;;;6309824;22;45367;-84
2022/01/31 06:26:04;;;;;;;;;2.00;1.00;;;;;;;;6310630;22;45430;-84
2022/01/31 06:28:29;;;;;;;;;2.50;1.00;;;;;;;;6310281;22;46000;-84
2022/01/31 06:30:54;;;;;;;;;4.00;1.00;;;;;;;;6310847;22;45292;-84
2022/01/31 06:33:19;;;;;;;;;2.67;1.00;;;;;;;;6310062;22;45235;-84
2022/01/31 06:35:45;;;;;;;;;7.00;1.33;;;;;;;;6308931;22;45720;-85
2022/01/31 06:38:10;;;;;;;;;1.50;1.25;;;;;;;;6280588;22;46691;-84
2022/01/31 06:40:35;;;;;;;;;0.75;0.75;;;;;;;;6310339;22;45326;-84
2022/01/31 06:43:00;;;;;;;;;2.00;1.00;;;;;;;;6310261;22;45262;-85
2022/01/31 06:45:26;;;;;;;;;0.00;0.00;;;;;;;;6310164;22;45506;-84
2022/01/31 06:47:51;;;;;;;;;6.00;2.00;;;;;;;;6309911;22;45252;-84
2022/01/31 06:50:16;;;;;;;;;0.75;0.75;;;;;;;;6310064;22;45382;-83
2022/01/31 06:52:42;;;;;;;;;1.67;1.00;;;;;;;;6310016;22;45254;-84
2022/01/31 06:55:08;;;;;;;;;3.00;1.25;;;;;;;;6310314;22;45426;-84
2022/01/31 06:57:34;;;;;;;;;0.00;0.00;;;;;;;;6309962;22;45367;-85
2022/01/31 07:00:03;;;;;;;;;3.50;1.00;;;;;;;;6282268;22;45194;-84
2022/01/31 07:02:30;;;;;;;;;4.00;1.00;;;;;;;;6309492;22;45338;-83
2022/01/31 07:04:55;;;;;;;;;1.00;1.00;;;;;;;;6310185;22;45421;-83
2022/01/31 07:07:20;;;;;;;;;4.00;1.50;;;;;;;;6309966;22;45346;-83
2022/01/31 07:09:45;;;;;;;;;1.67;1.00;;;;;;;;6310008;22;45374;-84
2022/01/31 07:12:12;;;;;;;;;2.00;0.33;;;;;;;;6310803;22;45413;-83
2022/01/31 07:14:37;;;;;;;;;4.00;1.00;;;;;;;;6282225;22;45269;-84
2022/01/31 07:17:04;;;;;;;;;1.00;1.00;;;;;;;;6281464;22;47110;-84
2022/01/31 07:19:32;;;;;;;;;6.00;1.00;;;;;;;;6309099;22;45169;-84
2022/01/31 07:21:58;;;;;;;;;1.75;1.00;;;;;;;;6309813;22;45405;-83
2022/01/31 07:25:08;;;;;;;;;4.50;2.00;;;;;;;;6309868;22;45385;-84
2022/01/31 07:27:12;;;;;;;;;5.75;0.50;;;;;;;;6292529;22;46850;-84
2022/01/31 07:29:38;;;;;;;;;2.50;0.75;;;;;;;;6309522;22;45224;-83
2022/01/31 07:32:04;;;;;;;;;2.00;2.00;;;;;;;;6278370;22;45869;-84
2022/01/31 07:34:29;;;;;;;;;2.25;1.00;;;;;;;;6309761;22;45335;-83
2022/01/31 07:36:54;;;;;;;;;3.00;1.00;;;;;;;;6308793;22;45431;-79
2022/01/31 07:39:20;;;;;;;;;1.67;1.00;;;;;;;;6307885;22;45266;-80
2022/01/31 07:41:46;;;;;;;;;4.00;1.50;;;;;;;;6277144;22;45398;-84
2022/01/31 07:44:12;;;;;;;;;3.00;0.25;;;;;;;;6308663;22;45389;-84
2022/01/31 07:46:37;;;;;;;;;3.25;1.50;;;;;;;;6308191;22;45313;-81
2022/01/31 07:49:03;;;;;;;;;1.00;1.00;;;;;;;;6308626;22;45418;-80
2022/01/31 07:51:29;;;;;;;;;1.50;1.00;;;;;;;;6280403;22;45381;-83
2022/01/31 07:53:54;;;;;;;;;3.00;1.00;;;;;;;;6278494;22;45742;-83
2022/01/31 07:56:20;;;;;;;;;4.00;2.50;;;;;;;;6308337;22;45812;-84
2022/01/31 07:58:46;;;;;;;;;1.75;1.00;;;;;;;;6307604;22;45712;-83
2022/01/31 08:01:11;;;;;;;;;9.75;2.00;;;;;;;;6280379;22;45577;-83
2022/01/31 08:03:36;;;;;;;;;2.25;0.50;;;;;;;;6309112;22;44815;-84
2022/01/31 08:06:02;;;;;;;;;4.00;1.00;;;;;;;;6308873;22;45247;-84
2022/01/31 08:08:29;;;;;;;;;2.00;1.25;;;;;;;;6308799;22;45239;-81
2022/01/31 08:10:55;;;;;;;;;2.75;1.25;;;;;;;;6308543;22;45405;-84
2022/01/31 08:13:20;;;;;;;;;7.00;1.75;;;;;;;;6308422;22;45420;-83
2022/01/31 08:15:48;;;;;;;;;2.00;2.00;;;;;;;;6280060;22;47094;-83
2022/01/31 08:18:14;;;;;;;;;4.00;1.25;;;;;;;;6278856;22;45408;-83
2022/01/31 08:20:39;;;;;;;;;1.50;1.00;;;;;;;;6282305;22;45271;-83
2022/01/31 08:23:07;;;;;;;;;0.25;0.00;;;;;;;;6279440;22;45431;-83
2022/01/31 08:25:36;;;;;;;;;1.00;1.00;;;;;;;;6280434;22;46818;-84
2022/01/31 08:28:06;;;;;;;;;2.00;2.00;;;;;;;;6306545;22;45350;-84
2022/01/31 08:30:40;;;;;;;;;5.25;1.00;;;;;;;;6310417;22;45177;-86
2022/01/31 08:33:13;;;;;;;;;1.75;1.75;;;;;;;;6280981;22;45399;-85
2022/01/31 08:35:48;;;;;;;;;2.25;0.00;;;;;;;;6309089;22;45397;-86
2022/01/31 08:38:15;;;;;;;;;4.50;1.00;;;;;;;;6286828;22;45572;-85
2022/01/31 08:40:41;;;;;;;;;2.00;1.50;;;;;;;;6314534;22;45198;-86
2022/01/31 08:43:07;;;;;;;;;2.50;0.25;;;;;;;;6284231;22;45714;-85
2022/01/31 08:45:34;;;;;;;;;4.00;1.50;;;;;;;;6284904;22;46619;-86
2022/01/31 08:47:59;;;;;;;;;1.75;1.00;;;;;;;;6311614;22;45184;-85
2022/01/31 08:50:25;;;;;;;;;5.00;1.75;;;;;;;;6283565;22;45353;-86
2022/01/31 08:52:50;;;;;;;;;4.75;1.00;;;;;;;;6283650;22;45299;-86
2022/01/31 08:55:17;;;;;;;;;3.75;1.75;;;;;;;;6283293;22;47136;-86
2022/01/31 08:57:42;;;;;;;;;2.00;2.00;;;;;;;;6311832;22;45685;-86
2022/01/31 09:00:08;;;;;;;;;5.75;1.75;;;;;;;;6281949;22;45401;-84
2022/01/31 09:02:39;;;;;;;;;7.75;2.00;;;;;;;;6281560;22;45478;-87
2022/01/31 09:05:05;;;;;;;;;5.25;1.25;;;;;;;;6309189;22;45875;-86
2022/01/31 09:07:30;;;;;;;;;8.00;2.50;;;;;;;;6308806;22;45360;-83
2022/01/31 09:09:57;;;;;;;;;5.00;2.00;;;;;;;;6309008;22;45215;-86
2022/01/31 09:12:26;;;;;;;;;8.50;2.50;;;;;;;;6284988;22;46095;-86
2022/01/31 09:14:51;;;;;;;;;10.25;2.00;;;;;;;;6310835;22;45480;-88
2022/01/31 09:17:17;;;;;;;;;3.50;2.00;;;;;;;;6309884;22;45225;-83
2022/01/31 09:19:42;;;;;;;;;5.00;1.00;;;;;;;;6282742;22;45357;-94
2022/01/31 09:22:10;;;;;;;;;4.00;1.00;;;;;;;;6311229;22;45360;-78
2022/01/31 09:24:38;;;;;;;;;2.75;1.50;;;;;;;;6281282;22;46228;-82
2022/01/31 09:27:04;;;;;;;;;4.75;2.00;;;;;;;;6309671;22;45271;-79
2022/01/31 09:29:29;;;;;;;;;5.00;1.75;;;;;;;;6309843;22;45280;-83
2022/01/31 09:31:54;;;;;;;;;4.00;2.00;;;;;;;;6309470;22;45442;-80
2022/01/31 09:34:21;;;;;;;;;3.00;2.67;;;;;;;;6309405;22;45568;-81
2022/01/31 09:36:47;;;;;;;;;4.00;2.00;;;;;;;;6307589;22;45589;-81
2022/01/31 09:39:12;;;;;;;;;4.75;3.25;;;;;;;;6309920;22;45460;-81
2022/01/31 09:41:40;;;;;;;;;2.00;1.75;;;;;;;;6281754;22;45474;-81
2022/01/31 09:46:45;;;;;;;;;8.75;2.00;;;;;;;;6310196;22;45278;-81
2022/01/31 09:49:10;;;;;;;;;8.50;2.00;;;;;;;;6308694;22;45373;-81
2022/01/31 09:51:35;;;;;;;;;5.25;2.00;;;;;;;;6310122;22;45863;-82
2022/01/31 09:54:02;;;;;;;;;4.75;2.00;;;;;;;;6281690;22;47778;-84
2022/01/31 09:56:37;;;;;;;;;4.75;3.00;;;;;;;;6281154;22;45359;-81
2022/01/31 09:59:03;;;;;;;;;5.00;2.00;;;;;;;;6308800;22;45267;-78
2022/01/31 10:01:33;;;;;;;;;4.00;2.00;;;;;;;;6309559;22;45260;-86
2022/01/31 10:03:58;;;;;;;;;6.75;2.50;;;;;;;;6280703;22;46384;-82
2022/01/31 10:06:25;;;;;;;;;0.00;0.00;;;;;;;;6310023;22;45437;-82
2022/01/31 10:08:59;;;;;;;;;2.50;1.00;;;;;;;;6310557;22;44705;-83
2022/01/31 10:11:28;;;;;;;;;3.00;2.00;;;;;;;;6283125;22;45461;-81
2022/01/31 10:16:45;;;;;;;;;1.50;1.50;;;;;;;;6312119;22;45269;-82
2022/01/31 10:19:10;;;;;;;;;3.00;1.75;;;;;;;;6316204;22;45346;-82
2022/01/31 10:21:54;;;;;;;;;5.25;1.25;;;;;;;;6322809;22;45180;-82
2022/01/31 10:24:20;;;;;;;;;5.00;3.50;;;;;;;;6298402;22;46921;-81
2022/01/31 10:26:45;;;;;;;;;3.75;1.00;;;;;;;;6289741;22;45686;-83
2022/01/31 10:29:12;;;;;;;;;4.50;3.25;;;;;;;;6310825;22;45437;-82
2022/01/31 10:31:37;;;;;;;;;3.50;2.00;;;;;;;;6310465;22;45604;-82
2022/01/31 10:34:13;;;;;;;;;6.00;2.25;;;;;;;;6280285;22;46575;-83
2022/01/31 10:36:39;;;;;;;;;6.50;3.00;;;;;;;;6280681;22;45355;-82
2022/01/31 10:39:13;;;;;;;;;5.75;2.75;;;;;;;;6280790;22;45324;-82
2022/01/31 10:44:56;;;;;;;;;3.00;1.50;;;;;;;;6308948;22;45343;-82
2022/01/31 10:53:02;;;;;;;;;6.50;3.50;;;;;;;;6260125;22;45425;-82
2022/01/31 10:55:28;;;;;;;;;3.75;1.50;;;;;;;;6281376;22;47559;-82
2022/01/31 10:58:10;;;;;;;;;4.00;2.00;;;;;;;;6307780;22;45324;-82
2022/01/31 11:00:37;;;;;;;;;5.50;4.00;;;;;;;;6280565;22;45307;-82
2022/01/31 11:03:21;;;;;;;;;3.00;3.00;;;;;;;;6309368;22;45287;-82
2022/01/31 11:05:49;;;;;;;;;3.25;2.00;;;;;;;;6308665;22;45577;-82
2022/01/31 11:08:15;;;;;;;;;2.25;2.00;;;;;;;;6280200;22;45775;-82
2022/01/31 11:10:41;;;;;;;;;7.00;5.00;;;;;;;;6280363;22;45445;-79
2022/01/31 11:13:06;;;;;;;;;6.50;4.00;;;;;;;;6281089;22;45476;-82
2022/01/31 11:15:31;;;;;;;;;5.00;3.67;;;;;;;;6309924;22;45385;-82
2022/01/31 11:17:59;;;;;;;;;4.75;3.00;;;;;;;;6309336;22;45331;-82
2022/01/31 11:20:24;;;;;;;;;5.75;4.00;;;;;;;;6281910;22;45214;-83
2022/01/31 11:22:56;;;;;;;;;5.75;3.00;;;;;;;;6308796;22;45282;-82
2022/01/31 11:25:26;;;;;;;;;5.00;2.75;;;;;;;;6309341;22;45355;-82
2022/01/31 11:27:53;;;;;;;;;4.75;3.00;;;;;;;;6309198;22;45481;-82
2022/01/31 11:30:19;;;;;;;;;4.25;2.00;;;;;;;;6281647;22;45351;-82
2022/01/31 11:32:46;;;;;;;;;2.50;1.75;;;;;;;;6309464;22;45677;-82
2022/01/31 11:35:12;;;;;;;;;5.50;1.00;;;;;;;;6281949;22;47549;-82
2022/01/31 11:37:37;;;;;;;;;4.50;1.00;;;;;;;;6280820;22;45247;-82
2022/01/31 11:40:05;;;;;;;;;2.50;2.00;;;;;;;;6309366;22;45433;-82
2022/01/31 11:42:30;;;;;;;;;3.00;2.00;;;;;;;;6308283;22;45387;-82
2022/01/31 11:44:56;;;;;;;;;2.25;2.00;;;;;;;;6279304;22;46913;-82
2022/01/31 11:47:22;;;;;;;;;5.00;3.00;;;;;;;;6309257;22;45563;-82
2022/01/31 11:49:48;;;;;;;;;2.75;2.00;;;;;;;;6308710;22;45315;-82
2022/01/31 11:52:14;;;;;;;;;3.00;3.00;;;;;;;;6309484;22;45590;-82
2022/01/31 11:54:50;;;;;;;;;9.25;4.50;;;;;;;;6309934;22;46393;-81
2022/01/31 11:57:17;;;;;;;;;4.00;3.00;;;;;;;;6308428;22;45559;-82
2022/01/31 11:59:42;;;;;;;;;7.50;4.25;;;;;;;;6307264;22;45570;-82
2022/01/31 12:02:12;;;;;;;;;3.75;1.00;;;;;;;;6308224;22;45426;-82
2022/01/31 12:04:42;;;;;;;;;5.50;3.00;;;;;;;;6308538;22;46568;-82
2022/01/31 12:07:26;;;;;;;;;3.00;2.00;;;;;;;;6308874;22;45282;-82
2022/01/31 12:09:54;;;;;;;;;3.25;1.00;;;;;;;;6280640;22;45410;-82
2022/01/31 12:13:13;;;;;;;;;3.00;3.00;;;;;;;;6308656;22;45425;-82
2022/01/31 12:15:33;;;;;;;;;7.50;5.00;;;;;;;;6301436;22;46056;-82
2022/01/31 12:18:24;;;;;;;;;8.25;3.25;;;;;;;;6307158;22;45246;-80
2022/01/31 12:23:39;;;;;;;;;4.75;3.00;;;;;;;;6308812;22;45324;-81
2022/01/31 12:26:24;;;;;;;;;4.75;3.50;;;;;;;;6305611;22;45319;-81
2022/01/31 12:29:00;;;;;;;;;3.50;2.25;;;;;;;;6277805;22;45245;-81
2022/01/31 12:31:34;;;;;;;;;5.00;3.00;;;;;;;;6306457;22;45350;-81
2022/01/31 12:34:00;;;;;;;;;4.00;3.00;;;;;;;;6306865;22;45645;-81
2022/01/31 12:36:35;;;;;;;;;3.25;1.50;;;;;;;;6278795;22;47249;-81
2022/01/31 12:39:20;;;;;;;;;2.00;1.75;;;;;;;;6278582;22;45647;-81
2022/01/31 12:41:46;;;;;;;;;2.50;2.00;;;;;;;;6306056;22;45334;-81
2022/01/31 12:44:42;;;;;;;;;1.67;1.00;;;;;;;;6305833;22;45220;-82
2022/01/31 12:47:08;;;;;;;;;0.25;0.25;;;;;;;;6259243;22;45585;-81
2022/01/31 12:49:33;;;;;;;;;1.00;1.00;;;;;;;;6306278;22;45377;-81
2022/01/31 12:51:59;;;;;;;;;1.00;1.00;;;;;;;;6279408;22;45771;-81
2022/01/31 12:54:25;;;;;;;;;4.75;1.00;;;;;;;;6305632;22;45511;-82
2022/01/31 12:56:51;;;;;;;;;3.00;0.50;;;;;;;;6278115;22;46901;-83
2022/01/31 12:59:17;;;;;;;;;3.00;1.00;;;;;;;;6306284;22;45458;-83
2022/01/31 13:01:44;;;;;;;;;2.50;1.00;;;;;;;;6306679;22;45461;-83
2022/01/31 13:04:19;;;;;;;;;7.25;2.00;;;;;;;;6307168;22;45260;-83
2022/01/31 13:06:48;;;;;;;;;2.00;1.00;;;;;;;;6279605;22;47932;-83
2022/01/31 13:09:27;;;;;;;;;4.00;2.00;;;;;;;;6306660;22;45552;-83
2022/01/31 13:11:57;;;;;;;;;1.75;1.75;;;;;;;;6307238;22;45334;-82
2022/01/31 13:14:25;;;;;;;;;3.00;1.00;;;;;;;;6278093;22;45518;-83
2022/01/31 13:17:17;;;;;;;;;4.25;2.00;;;;;;;;6278445;22;47355;-83
2022/01/31 13:19:45;;;;;;;;;2.50;1.75;;;;;;;;6279137;22;45715;-83
2022/01/31 13:22:14;;;;;;;;;2.75;2.50;;;;;;;;6306573;22;45426;-82
2022/01/31 13:24:41;;;;;;;;;1.50;1.25;;;;;;;;6306942;22;45290;-82
2022/01/31 13:27:07;;;;;;;;;0.00;0.00;;;;;;;;6307275;22;45189;-83
2022/01/31 13:29:37;;;;;;;;;3.75;1.00;;;;;;;;6278633;22;45556;-81
2022/01/31 13:32:33;;;;;;;;;3.00;0.00;;;;;;;;6306617;22;45347;-82
2022/01/31 13:34:59;;;;;;;;;2.00;1.00;;;;;;;;6258742;22;45267;-82
2022/01/31 13:37:28;;;;;;;;;4.50;1.00;;;;;;;;6278539;22;48184;-82
2022/01/31 13:39:58;;;;;;;;;4.00;0.00;;;;;;;;6278679;22;45346;-82
2022/01/31 13:42:27;;;;;;;;;4.00;1.00;;;;;;;;6305672;22;45339;-83
2022/01/31 13:44:55;;;;;;;;;3.50;2.00;;;;;;;;6279065;22;45803;-83
2022/01/31 13:47:36;;;;;;;;;3.75;2.00;;;;;;;;6305076;22;45954;-82
2022/01/31 13:50:13;;;;;;;;;2.00;2.00;;;;;;;;6307108;22;45261;-80
2022/01/31 13:52:48;;;;;;;;;1.00;1.00;;;;;;;;6278584;22;45339;-81
2022/01/31 13:55:13;;;;;;;;;6.75;1.00;;;;;;;;6300730;22;45488;-82
2022/01/31 13:57:40;;;;;;;;;2.75;2.50;;;;;;;;6280031;22;47348;-83
2022/01/31 14:00:06;;;;;;;;;1.50;0.00;;;;;;;;6280868;22;45535;-83
2022/01/31 14:02:31;;;;;;;;;2.25;1.00;;;;;;;;6279532;22;45337;-83
2022/01/31 14:04:57;;;;;;;;;2.50;0.00;;;;;;;;6308072;22;45338;-83
2022/01/31 14:07:29;;;;;;;;;1.00;1.00;;;;;;;;6279763;22;46829;-83
2022/01/31 14:09:55;;;;;;;;;1.75;1.00;;;;;;;;6308818;22;45401;-83
2022/01/31 14:12:23;;;;;;;;;3.50;1.75;;;;;;;;6308851;22;45560;-83
2022/01/31 14:14:48;;;;;;;;;2.50;1.25;;;;;;;;6309721;22;45531;-83
2022/01/31 14:17:14;;;;;;;;;2.25;1.00;;;;;;;;6309105;22;45235;-82
2022/01/31 14:19:39;;;;;;;;;3.67;2.00;;;;;;;;6309336;22;45331;-83
2022/01/31 14:22:07;;;;;;;;;1.25;1.25;;;;;;;;6310445;22;45231;-83
2022/01/31 14:24:33;;;;;;;;;1.00;1.00;;;;;;;;6280980;22;45468;-83
2022/01/31 14:27:04;;;;;;;;;2.00;1.00;;;;;;;;6281340;22;46308;-83
2022/01/31 14:29:31;;;;;;;;;2.50;0.75;;;;;;;;6308980;22;45359;-83
2022/01/31 14:31:57;;;;;;;;;1.75;1.00;;;;;;;;6308916;22;45318;-83
2022/01/31 14:34:24;;;;;;;;;3.00;1.00;;;;;;;;6281147;22;45437;-83
2022/01/31 14:36:53;;;;;;;;;1.25;1.00;;;;;;;;6308490;22;46333;-81
2022/01/31 14:39:43;;;;;;;;;2.00;0.00;;;;;;;;6308521;22;45240;-84
2022/01/31 14:42:41;;;;;;;;;2.75;1.00;;;;;;;;6310374;22;45334;-80
2022/01/31 14:47:53;;;;;;;;;2.00;1.50;;;;;;;;6306761;22;45784;-82
2022/01/31 14:50:20;;;;;;;;;1.00;1.00;;;;;;;;6306698;22;45491;-81
2022/01/31 14:52:46;;;;;;;;;3.75;1.75;;;;;;;;6308358;22;45311;-89
2022/01/31 14:55:16;;;;;;;;;2.75;2.00;;;;;;;;6284019;22;45262;-88
2022/01/31 14:57:42;;;;;;;;;1.00;1.00;;;;;;;;6282098;22;47143;-83
2022/01/31 15:00:09;;;;;;;;;2.00;0.00;;;;;;;;6308049;22;45208;-83
2022/01/31 15:02:36;;;;;;;;;5.25;0.00;;;;;;;;6308784;22;45177;-83
2022/01/31 15:05:02;;;;;;;;;2.75;1.00;;;;;;;;6280673;22;45915;-83